Time;durP1;ratioP1;P1;durP2;ratioP2;P2;SDS_P1;SDS_P2;PMS_P1;PMS_P2;Temp;Humidity;BMP_temperature;BMP_pressure;BME280_temperature;BME280_humidity;BME280_pressure;Samples;Min_cycle;Max_cycle;Signal;HPM_P1;HPM_P2
2022/06/11 00:01:28;;;;;;;5.97;5.47;;;;;;;15.78;56.02;101408.28;5054246;28;20016;-24
2022/06/11 00:03:58;;;;;;;6.07;5.57;;;;;;;15.81;55.63;101406.50;5070817;28;20016;-23
2022/06/11 00:06:25;;;;;;;5.55;5.15;;;;;;;15.74;55.91;101411.91;5061502;28;20047;-23
2022/06/11 00:08:51;;;;;;;5.60;5.10;;;;;;;15.70;55.99;101418.22;5082465;28;20021;-23
2022/06/11 00:11:16;;;;;;;5.70;5.25;;;;;;;15.69;55.99;101415.56;5080847;28;20024;-23
2022/06/11 00:13:42;;;;;;;5.88;5.47;;;;;;;15.69;55.83;101413.81;5079145;28;20499;-23
2022/06/11 00:16:08;;;;;;;5.65;5.25;;;;;;;15.62;55.96;101417.47;5076298;28;20028;-24
2022/06/11 00:18:36;;;;;;;5.88;5.38;;;;;;;15.51;55.81;101409.72;5076545;28;20020;-24
2022/06/11 00:21:03;;;;;;;6.20;5.80;;;;;;;15.46;56.06;101412.44;5054865;28;20024;-23
2022/06/11 00:23:28;;;;;;;6.03;5.57;;;;;;;15.55;55.88;101415.84;5073894;28;20059;-23
2022/06/11 00:25:54;;;;;;;6.10;5.60;;;;;;;15.50;55.83;101414.13;5060519;28;20056;-23
2022/06/11 00:28:20;;;;;;;5.68;5.25;;;;;;;15.41;56.20;101410.78;5075659;28;20074;-23
2022/06/11 00:30:45;;;;;;;6.63;6.03;;;;;;;15.42;56.05;101408.09;5073869;28;20024;-23
2022/06/11 00:33:11;;;;;;;6.10;5.70;;;;;;;15.36;56.07;101411.72;5070368;28;20082;-24
2022/06/11 00:35:37;;;;;;;6.18;5.57;;;;;;;15.34;56.26;101410.88;5074077;28;20039;-24
2022/06/11 00:38:04;;;;;;;5.47;5.10;;;;;;;15.31;56.10;101405.59;5080757;28;20115;-24
2022/06/11 00:40:31;;;;;;;5.97;5.40;;;;;;;15.27;56.16;101407.44;5067162;28;20016;-23
2022/06/11 00:42:56;;;;;;;6.40;5.90;;;;;;;15.27;56.61;101401.25;5061852;28;20669;-23
2022/06/11 00:45:38;;;;;;;5.55;5.10;;;;;;;15.21;56.29;101404.88;5079668;28;20021;-24
2022/06/11 00:48:12;;;;;;;5.97;5.45;;;;;;;15.12;56.27;101410.34;5064138;28;20035;-24
2022/06/11 00:50:58;;;;;;;5.95;5.47;;;;;;;15.21;56.48;101406.69;5064712;28;20715;-23
2022/06/11 00:53:44;;;;;;;6.72;5.38;;;;;;;15.14;56.44;101401.44;5064787;28;20029;-23
2022/06/11 00:56:22;;;;;;;6.35;5.75;;;;;;;15.09;56.57;101405.09;5062174;28;20421;-23
2022/06/11 00:58:50;;;;;;;6.35;5.80;;;;;;;14.99;56.58;101407.03;5061500;28;20484;-23
2022/06/11 01:01:17;;;;;;;6.60;6.00;;;;;;;14.96;56.51;101407.94;5077419;28;20228;-23
2022/06/11 01:03:44;;;;;;;6.20;5.65;;;;;;;14.97;56.76;101404.38;5074373;28;20586;-23
2022/06/11 01:06:24;;;;;;;5.63;5.18;;;;;;;14.98;56.78;101407.94;5062610;28;20043;-23
2022/06/11 01:08:53;;;;;;;6.22;5.63;;;;;;;14.92;56.58;101405.34;5076389;28;20027;-23
2022/06/11 01:11:30;;;;;;;5.70;5.30;;;;;;;14.92;56.50;101400.94;5078487;28;20039;-23
2022/06/11 01:14:20;;;;;;;6.57;6.00;;;;;;;14.89;56.48;101411.59;5083001;28;20048;-23
2022/06/11 01:17:19;;;;;;;5.97;5.45;;;;;;;14.83;56.35;101401.06;5076706;28;20089;-23
2022/06/11 01:19:55;;;;;;;6.57;6.03;;;;;;;14.81;56.46;101402.88;5065393;28;20029;-23
2022/06/11 01:22:26;;;;;;;6.00;5.60;;;;;;;14.78;56.78;101395.84;5081198;28;20035;-23
2022/06/11 01:25:06;;;;;;;6.22;5.63;;;;;;;14.73;56.47;101400.28;5073452;28;20025;-23
2022/06/11 01:27:44;;;;;;;6.70;6.10;;;;;;;14.71;56.92;101396.81;5075356;28;20036;-23
2022/06/11 01:30:22;;;;;;;6.30;5.80;;;;;;;14.69;57.16;101387.97;5077489;28;20020;-23
2022/06/11 01:33:02;;;;;;;5.93;5.53;;;;;;;14.68;57.29;101395.06;5066693;28;20034;-23
2022/06/11 01:35:45;;;;;;;6.00;5.40;;;;;;;14.56;56.71;101395.22;5062009;28;20519;-23
2022/06/11 01:38:20;;;;;;;6.60;6.10;;;;;;;14.61;56.92;101396.06;5084493;28;20103;-23
2022/06/11 01:41:14;;;;;;;7.25;5.95;;;;;;;14.58;57.05;101396.09;5079122;28;20252;-23
2022/06/11 01:43:42;;;;;;;6.10;5.60;;;;;;;14.59;57.45;101397.84;5063256;28;20507;-23
2022/06/11 01:46:17;;;;;;;6.22;5.70;;;;;;;14.53;57.39;101398.81;5057369;28;20032;-23
2022/06/11 01:48:55;;;;;;;6.00;5.53;;;;;;;14.49;57.31;101399.75;5065223;28;20660;-23
2022/06/11 01:51:33;;;;;;;6.40;5.85;;;;;;;14.51;57.53;101387.34;5079527;28;20119;-23
2022/06/11 01:54:17;;;;;;;6.07;5.57;;;;;;;14.43;57.65;101390.09;5056900;28;20399;-23
2022/06/11 01:57:07;;;;;;;6.30;5.70;;;;;;;14.43;57.46;101392.75;5075638;28;20032;-23
2022/06/11 01:59:44;;;;;;;6.07;5.68;;;;;;;14.45;57.89;101390.97;5073996;28;20081;-23
2022/06/11 02:02:15;;;;;;;7.00;6.40;;;;;;;14.43;58.14;101382.13;5065987;28;20033;-23
2022/06/11 02:05:02;;;;;;;6.32;5.72;;;;;;;14.38;57.84;101381.34;5081461;28;20399;-23
2022/06/11 02:07:43;;;;;;;6.63;6.22;;;;;;;14.40;58.17;101392.78;5058807;28;20028;-23
2022/06/11 02:10:15;;;;;;;;;;;;;;;14.39;57.93;101391.03;5057866;28;20057;-23
2022/06/11 02:12:48;;;;;;;6.45;5.95;;;;;;;14.34;57.92;101395.53;5057829;28;19922;-23
2022/06/11 02:15:17;;;;;;;6.75;6.15;;;;;;;14.39;58.40;101385.72;5056658;28;20043;-24
2022/06/11 02:17:46;;;;;;;6.63;6.03;;;;;;;14.43;58.19;101392.75;5062213;28;20027;-23
2022/06/11 02:20:18;;;;;;;6.90;6.30;;;;;;;14.43;58.53;101382.13;5055907;28;20111;-23
2022/06/11 02:22:45;;;;;;;6.68;6.07;;;;;;;14.44;58.38;101375.91;5056097;28;20024;-23
2022/06/11 02:25:27;;;;;;;7.20;6.60;;;;;;;14.42;58.51;101388.34;5077134;28;20502;-23
2022/06/11 02:27:57;;;;;;;7.18;6.57;;;;;;;14.40;58.69;101382.16;5077661;28;20031;-23
2022/06/11 02:30:25;;;;;;;6.72;6.20;;;;;;;14.41;58.53;101388.38;5060501;28;20034;-23
2022/06/11 02:32:51;;;;;;;6.90;6.35;;;;;;;14.34;58.58;101379.63;5048098;28;20300;-23
2022/06/11 02:35:36;;;;;;;7.47;6.78;;;;;;;14.31;58.54;101380.50;5056296;28;20028;-23
2022/06/11 02:38:04;;;;;;;7.07;6.47;;;;;;;14.37;58.99;101377.78;5080438;28;20047;-22
2022/06/11 02:40:33;;;;;;;6.85;6.35;;;;;;;14.35;58.67;101381.38;5061396;28;20016;-23
2022/06/11 02:42:58;;;;;;;7.28;6.68;;;;;;;14.38;59.21;101381.34;5084303;28;20531;-23
2022/06/11 02:45:23;;;;;;;6.88;6.38;;;;;;;14.40;59.36;101384.81;5063654;28;20048;-23
2022/06/11 02:47:51;;;;;;;6.45;5.95;;;;;;;14.35;59.22;101384.91;5074807;28;20446;-23
2022/06/11 02:50:26;;;;;;;6.68;6.00;;;;;;;14.32;58.69;101381.41;5075311;28;20020;-23
2022/06/11 02:52:52;;;;;;;7.63;6.93;;;;;;;14.40;59.35;101376.88;5076423;28;20024;-23
2022/06/11 02:55:18;;;;;;;7.35;6.53;;;;;;;14.39;59.62;101384.84;5073886;28;20051;-23
2022/06/11 02:57:43;;;;;;;6.63;6.03;;;;;;;14.42;59.50;101377.72;5077025;28;20434;-23
2022/06/11 03:00:12;;;;;;;7.22;6.63;;;;;;;14.42;59.68;101374.19;5059180;28;20016;-23
2022/06/11 03:02:37;;;;;;;7.03;6.43;;;;;;;14.39;59.52;101383.09;5058579;28;20041;-23
2022/06/11 03:05:03;;;;;;;7.45;6.80;;;;;;;14.38;59.08;101384.00;5074495;28;20396;-23
2022/06/11 03:07:29;;;;;;;7.65;7.00;;;;;;;14.41;59.78;101391.91;5078449;28;20056;-23
2022/06/11 03:09:54;;;;;;;7.07;6.47;;;;;;;14.42;59.58;101385.69;5076487;28;20055;-23
2022/06/11 03:12:20;;;;;;;7.70;7.10;;;;;;;14.44;59.42;101383.88;5077179;28;20056;-23
2022/06/11 03:14:45;;;;;;;7.70;7.05;;;;;;;14.40;59.41;101386.63;5073125;28;20083;-23
2022/06/11 03:17:13;;;;;;;7.72;7.13;;;;;;;14.37;59.09;101388.41;5057587;28;20024;-23
2022/06/11 03:19:39;;;;;;;8.30;7.53;;;;;;;14.46;59.47;101382.09;5075882;28;20035;-23
2022/06/11 03:22:05;;;;;;;7.68;6.88;;;;;;;14.42;59.70;101391.00;5059252;28;20058;-23
2022/06/11 03:24:31;;;;;;;8.40;7.60;;;;;;;14.48;59.94;101385.59;5072263;28;20469;-23
2022/06/11 03:26:56;;;;;;;8.98;8.05;;;;;;;14.48;60.18;101396.22;5081394;28;20034;-23
2022/06/11 03:29:23;;;;;;;7.72;6.93;;;;;;;14.49;59.64;101390.03;5058978;28;20543;-23
2022/06/11 03:31:49;;;;;;;8.10;7.40;;;;;;;14.47;59.88;101397.13;5059793;28;20039;-23
2022/06/11 03:34:15;;;;;;;7.85;7.25;;;;;;;14.43;59.80;101394.50;5075012;28;20113;-23
2022/06/11 03:36:42;;;;;;;8.20;7.47;;;;;;;14.46;60.33;101394.47;5048233;28;20119;-23
2022/06/11 03:39:08;;;;;;;7.90;7.18;;;;;;;14.48;60.39;101398.00;5058904;28;20028;-23
2022/06/11 03:41:33;;;;;;;7.45;6.78;;;;;;;14.40;59.76;101402.53;5071976;28;20105;-23
2022/06/11 03:43:59;;;;;;;7.75;7.05;;;;;;;14.46;59.65;101403.34;5076545;28;20024;-23
2022/06/11 03:46:24;;;;;;;7.88;7.18;;;;;;;14.46;60.13;101405.97;5078468;28;20429;-23
2022/06/11 03:48:50;;;;;;;8.45;7.75;;;;;;;14.49;59.61;101408.59;5075909;28;20399;-23
2022/06/11 03:51:16;;;;;;;7.60;6.88;;;;;;;14.43;59.32;101413.97;5059748;28;20028;-23
2022/06/11 03:53:42;;;;;;;7.68;7.07;;;;;;;14.46;60.12;101413.94;5075573;28;20029;-23
2022/06/11 03:56:09;;;;;;;7.80;7.20;;;;;;;14.42;59.71;101409.59;5059245;28;20031;-23
2022/06/11 03:58:35;;;;;;;7.65;7.05;;;;;;;14.49;60.29;101408.59;5077436;28;20032;-23
2022/06/11 04:01:16;;;;;;;7.57;6.97;;;;;;;14.53;59.98;101413.84;5073526;28;20027;-23
2022/06/11 04:03:58;;;;;;;7.88;7.28;;;;;;;14.53;60.14;101408.53;5078795;28;20085;-23
2022/06/11 04:06:27;;;;;;;7.25;6.72;;;;;;;14.49;60.55;101419.22;5077399;28;20028;-24
2022/06/11 04:08:53;;;;;;;7.68;7.07;;;;;;;14.52;60.00;101418.28;5056457;28;20032;-24
2022/06/11 04:11:19;;;;;;;7.55;6.85;;;;;;;14.52;60.23;101412.09;5077737;28;20123;-24
2022/06/11 04:13:45;;;;;;;8.05;7.32;;;;;;;14.52;60.13;101418.28;5085058;28;20051;-24
2022/06/11 04:16:43;;;;;;;7.85;7.15;;;;;;;14.53;60.14;101420.03;5062628;28;20027;-24
2022/06/11 04:19:15;;;;;;;7.50;6.90;;;;;;;14.56;59.86;101417.34;5056612;28;20557;-24
2022/06/11 04:21:42;;;;;;;9.15;6.97;;;;;;;14.60;60.39;101420.81;5077839;28;20032;-24
2022/06/11 04:24:07;;;;;;;7.07;6.57;;;;;;;14.62;60.51;101425.25;5076662;28;20020;-24
2022/06/11 04:26:40;;;;;;;7.47;6.88;;;;;;;14.65;60.52;101419.00;5081936;28;20177;-24
2022/06/11 04:29:07;;;;;;;7.22;6.68;;;;;;;14.66;60.65;101411.91;5080998;28;20032;-24
2022/06/11 04:31:33;;;;;;;7.82;7.10;;;;;;;14.71;61.20;101415.38;5074219;28;20024;-24
2022/06/11 04:33:59;;;;;;;7.38;6.78;;;;;;;14.73;61.08;101418.88;5081820;28;20032;-24
2022/06/11 04:36:27;;;;;;;7.75;7.15;;;;;;;14.76;60.75;101410.88;5083573;28;20038;-24
2022/06/11 04:38:52;;;;;;;7.25;6.65;;;;;;;14.79;60.54;101416.19;5078074;28;20056;-24
2022/06/11 04:41:18;;;;;;;7.75;7.05;;;;;;;14.82;60.34;101415.25;5084424;28;20047;-24
2022/06/11 04:43:43;;;;;;;7.93;7.22;;;;;;;14.85;61.23;101420.50;5071090;28;20438;-24
2022/06/11 04:46:09;;;;;;;7.80;7.03;;;;;;;14.88;60.87;101423.13;5064653;28;20028;-24
2022/06/11 04:48:35;;;;;;;7.10;6.57;;;;;;;14.90;60.85;101423.97;5082738;28;20023;-24
2022/06/11 04:51:01;;;;;;;7.85;7.05;;;;;;;14.97;60.08;101419.47;5086339;28;20077;-24
2022/06/11 04:53:26;;;;;;;7.00;6.45;;;;;;;14.99;60.60;101418.53;5078898;28;20032;-24
2022/06/11 04:55:52;;;;;;;8.15;7.35;;;;;;;15.05;60.59;101411.34;5067802;28;20028;-24
2022/06/11 04:58:17;;;;;;;9.55;7.65;;;;;;;15.12;60.69;101423.63;5056491;28;20083;-24
2022/06/11 05:00:43;;;;;;;7.88;7.10;;;;;;;15.17;60.76;101420.91;5083783;28;20502;-24
2022/06/11 05:03:08;;;;;;;7.45;6.70;;;;;;;15.23;59.92;101412.81;5081701;28;20028;-24
2022/06/11 05:05:34;;;;;;;7.45;6.85;;;;;;;15.27;59.87;101417.19;5078600;28;20036;-24
2022/06/11 05:08:01;;;;;;;7.40;6.80;;;;;;;15.30;60.53;101422.44;5082419;28;20059;-24
2022/06/11 05:10:29;;;;;;;6.70;6.10;;;;;;;15.36;61.04;101422.34;5084683;28;20542;-24
2022/06/11 05:12:55;;;;;;;6.93;6.32;;;;;;;15.40;59.71;101423.16;5063682;28;20055;-24
2022/06/11 05:15:21;;;;;;;7.70;6.82;;;;;;;15.46;59.96;101432.81;5082109;28;20491;-24
2022/06/11 05:17:47;;;;;;;6.45;5.95;;;;;;;15.51;59.40;101426.50;5065014;28;20048;-24
2022/06/11 05:20:13;;;;;;;6.75;6.15;;;;;;;15.58;59.14;101427.31;5083167;28;20035;-24
2022/06/11 05:22:39;;;;;;;6.85;6.25;;;;;;;15.62;58.98;101421.03;5074919;28;20035;-24
2022/06/11 05:25:05;;;;;;;6.40;5.85;;;;;;;15.73;58.85;101430.56;5078185;28;20032;-24
2022/06/11 05:27:31;;;;;;;7.20;6.43;;;;;;;15.78;58.78;101432.22;5076953;28;20559;-24
2022/06/11 05:30:00;;;;;;;7.05;6.47;;;;;;;15.87;58.62;101427.66;5077292;28;20110;-24
2022/06/11 05:32:30;;;;;;;6.20;5.70;;;;;;;15.93;58.74;101427.53;5057082;28;20050;-24
2022/06/11 05:34:57;;;;;;;6.88;6.28;;;;;;;16.01;58.60;101430.09;5068253;28;20035;-24
2022/06/11 05:37:23;;;;;;;7.03;6.22;;;;;;;16.10;58.69;101429.00;5062019;28;20028;-24
2022/06/11 05:39:49;;;;;;;6.97;6.25;;;;;;;16.26;58.80;101429.56;5044482;28;20433;-24
2022/06/11 05:42:16;;;;;;;6.32;5.72;;;;;;;16.37;58.75;101429.38;5077747;28;20099;-24
2022/06/11 05:44:42;;;;;;;6.80;6.20;;;;;;;16.48;59.07;101430.00;5074805;28;20108;-24
2022/06/11 05:47:09;;;;;;;6.60;6.00;;;;;;;16.60;58.97;101430.66;5048191;28;20162;-24
2022/06/11 05:49:38;;;;;;;5.82;5.43;;;;;;;16.71;58.84;101420.63;5079997;28;20020;-24
2022/06/11 05:52:09;;;;;;;6.45;5.82;;;;;;;16.84;58.94;101423.00;5063020;28;20086;-23
2022/06/11 05:54:35;;;;;;;6.20;5.70;;;;;;;16.94;59.63;101427.16;5065576;28;20474;-23
2022/06/11 05:57:05;;;;;;;6.32;5.85;;;;;;;17.08;58.98;101423.34;5047531;28;20039;-24
2022/06/11 05:59:34;;;;;;;6.32;5.78;;;;;;;17.18;58.79;101424.88;5051725;28;20063;-24
2022/06/11 06:02:01;;;;;;;5.55;5.10;;;;;;;17.29;59.54;101417.50;5057341;28;20020;-24
2022/06/11 06:04:27;;;;;;;5.95;5.45;;;;;;;17.45;60.11;101419.75;5062310;28;20024;-23
2022/06/11 06:06:52;;;;;;;6.18;5.63;;;;;;;17.61;59.85;101411.34;5057012;28;20097;-24
2022/06/11 06:09:17;;;;;;;6.32;5.65;;;;;;;17.74;60.08;101419.91;5076640;28;20024;-24
2022/06/11 06:11:43;;;;;;;5.45;4.97;;;;;;;17.86;60.11;101416.00;5078796;28;20074;-24
2022/06/11 06:14:08;;;;;;;5.63;5.00;;;;;;;17.97;59.92;101413.91;5055258;28;20121;-24
2022/06/11 06:16:34;;;;;;;6.90;4.90;;;;;;;18.08;59.56;101417.13;5074005;28;20024;-24
2022/06/11 06:19:00;;;;;;;5.82;5.32;;;;;;;18.22;59.33;101413.25;5075541;28;21000;-23
2022/06/11 06:21:28;;;;;;;5.47;5.00;;;;;;;18.37;60.24;101424.38;5077775;28;20180;-23
2022/06/11 06:23:53;;;;;;;5.72;5.15;;;;;;;18.51;59.65;101424.81;5064747;28;20054;-23
2022/06/11 06:26:19;;;;;;;5.90;5.30;;;;;;;18.65;60.32;101410.16;5075948;28;20120;-23
2022/06/11 06:28:45;;;;;;;6.15;4.72;;;;;;;18.77;59.17;101420.47;5056250;28;20490;-23
2022/06/11 06:31:12;;;;;;;6.40;4.40;;;;;;;18.93;59.44;101414.63;5075606;28;20054;-23
2022/06/11 06:33:38;;;;;;;4.72;4.32;;;;;;;19.07;59.54;101417.75;5052586;28;20046;-23
2022/06/11 06:36:05;;;;;;;4.40;4.10;;;;;;;19.21;59.81;101411.09;5080752;28;20459;-23
2022/06/11 06:38:32;;;;;;;8.07;4.35;;;;;;;19.36;59.77;101413.25;5067670;28;20403;-23
2022/06/11 06:40:57;;;;;;;5.97;4.50;;;;;;;19.54;59.45;101407.31;5076165;28;20186;-23
2022/06/11 06:43:23;;;;;;;6.25;4.07;;;;;;;19.66;59.26;101414.88;5077635;28;20119;-24
2022/06/11 06:45:48;;;;;;;5.25;4.85;;;;;;;19.81;58.98;101418.78;5063174;28;20034;-24
2022/06/11 06:48:14;;;;;;;4.97;3.88;;;;;;;19.93;59.11;101417.47;5075899;28;20067;-24
2022/06/11 06:50:39;;;;;;;5.20;4.25;;;;;;;20.05;58.75;101418.88;5057128;28;20035;-24
2022/06/11 06:53:05;;;;;;;7.32;4.20;;;;;;;20.23;59.13;101413.75;5077357;28;20130;-24
2022/06/11 06:55:30;;;;;;;5.18;4.43;;;;;;;20.37;58.91;101416.78;5080150;28;20030;-24
2022/06/11 06:57:56;;;;;;;6.88;4.85;;;;;;;20.49;58.75;101419.91;5074457;28;20024;-24
2022/06/11 07:00:22;;;;;;;4.72;4.25;;;;;;;20.62;58.42;101410.47;5076989;28;20077;-24
2022/06/11 07:02:47;;;;;;;6.63;4.15;;;;;;;20.80;58.33;101407.94;5074112;28;20031;-24
2022/06/11 07:05:14;;;;;;;4.88;4.00;;;;;;;20.92;58.36;101416.47;5077653;28;20020;-24
2022/06/11 07:07:39;;;;;;;4.80;4.35;;;;;;;21.06;58.05;101408.72;5078474;28;20024;-24
2022/06/11 07:10:06;;;;;;;4.32;3.90;;;;;;;21.21;57.35;101411.72;5071594;28;20039;-24
2022/06/11 07:12:32;;;;;;;6.55;3.90;;;;;;;21.36;57.64;101402.13;5078697;28;20495;-24
2022/06/11 07:14:58;;;;;;;4.47;4.07;;;;;;;21.46;57.15;101405.28;5081705;28;20035;-23
2022/06/11 07:17:24;;;;;;;4.63;3.45;;;;;;;21.58;57.27;101407.44;5077270;28;20020;-23
2022/06/11 07:19:54;;;;;;;3.70;3.38;;;;;;;21.69;57.46;101401.59;5060687;28;20054;-23
2022/06/11 07:22:23;;;;;;;4.40;3.65;;;;;;;21.85;57.96;101415.22;5074641;28;20039;-23
2022/06/11 07:24:49;;;;;;;4.68;3.95;;;;;;;22.02;57.51;101408.22;5060675;28;20020;-23
2022/06/11 07:27:19;;;;;;;4.95;3.80;;;;;;;22.16;56.64;101403.06;5078717;28;20411;-23
2022/06/11 07:29:48;;;;;;;7.32;3.85;;;;;;;22.27;56.37;101402.56;5073744;28;20033;-23
2022/06/11 07:32:17;;;;;;;3.63;3.15;;;;;;;22.44;55.96;101403.56;5086218;28;20429;-23
2022/06/11 07:34:43;;;;;;;3.50;3.28;;;;;;;22.57;55.45;101406.56;5062315;28;20020;-23
2022/06/11 07:37:09;;;;;;;4.75;3.58;;;;;;;22.67;55.87;101405.19;5057067;28;20111;-23
2022/06/11 07:39:35;;;;;;;3.30;3.00;;;;;;;22.74;56.00;101395.00;5078563;28;20425;-23
2022/06/11 07:42:00;;;;;;;4.35;3.30;;;;;;;22.89;55.66;101401.44;5084828;28;20480;-23
2022/06/11 07:44:25;;;;;;;5.65;3.30;;;;;;;22.98;54.93;101405.50;5076616;28;20024;-23
2022/06/11 07:46:51;;;;;;;4.55;3.03;;;;;;;23.15;54.75;101410.03;5084770;28;20028;-23
2022/06/11 07:49:16;;;;;;;3.88;2.58;;;;;;;23.25;54.04;101409.53;5084212;28;20587;-23
2022/06/11 07:51:43;;;;;;;4.05;2.88;;;;;;;23.40;54.11;101402.50;5063975;28;20039;-23
2022/06/11 07:54:08;;;;;;;4.45;2.40;;;;;;;23.62;53.28;101402.28;5081656;28;20462;-23
2022/06/11 07:56:35;;;;;;;3.00;2.38;;;;;;;23.77;52.60;101414.03;5082519;28;20028;-23
2022/06/11 07:59:00;;;;;;;3.03;2.72;;;;;;;23.74;52.36;101410.66;5081548;28;20028;-23
2022/06/11 08:01:25;;;;;;;5.15;2.60;;;;;;;23.90;52.38;101406.19;5063334;28;20132;-23
2022/06/11 08:03:51;;;;;;;3.47;2.58;;;;;;;24.02;51.42;101401.06;5080213;28;20016;-23
2022/06/11 08:06:16;;;;;;;3.42;2.70;;;;;;;24.07;52.55;101404.38;5083990;28;20339;-23
2022/06/11 08:08:41;;;;;;;3.45;2.28;;;;;;;24.14;51.42;101405.81;5080275;28;20176;-23
2022/06/11 08:11:07;;;;;;;3.75;2.22;;;;;;;24.21;51.71;101399.13;5062141;28;20098;-23
2022/06/11 08:13:33;;;;;;;2.50;2.25;;;;;;;24.15;50.92;101404.88;5082084;28;20075;-23
2022/06/11 08:15:59;;;;;;;2.63;2.42;;;;;;;24.25;52.14;101409.75;5083079;28;20400;-23
2022/06/11 08:18:26;;;;;;;3.75;2.10;;;;;;;24.50;51.29;101406.53;5064456;28;20028;-23
2022/06/11 08:20:51;;;;;;;3.38;2.20;;;;;;;24.67;51.21;101405.56;5049661;28;20017;-23
2022/06/11 08:23:18;;;;;;;2.72;2.25;;;;;;;24.76;51.75;101398.78;5076559;28;20094;-23
2022/06/11 08:25:44;;;;;;;4.57;3.17;;;;;;;24.92;49.95;101406.91;5082305;28;20055;-23
2022/06/11 08:28:12;;;;;;;5.55;2.25;;;;;;;24.96;49.87;101400.34;5082588;28;20067;-23
2022/06/11 08:30:37;;;;;;;2.85;2.25;;;;;;;25.02;51.44;101399.13;5058551;28;20015;-23
2022/06/11 08:33:03;;;;;;;2.47;2.28;;;;;;;25.29;49.48;101405.66;5073833;28;20024;-23
2022/06/11 08:35:30;;;;;;;3.70;2.60;;;;;;;25.40;49.34;101397.78;5078176;28;20437;-23
2022/06/11 08:37:55;;;;;;;3.03;2.17;;;;;;;25.54;48.95;101398.78;5081112;28;20047;-23
2022/06/11 08:40:33;;;;;;;2.88;2.40;;;;;;;25.56;49.73;101400.41;5084547;28;20016;-23
2022/06/11 08:43:01;;;;;;;3.40;2.58;;;;;;;25.61;49.21;101405.56;5062400;28;20398;-23
2022/06/11 08:46:15;;;;;;;2.25;2.10;;;;;;;25.75;49.60;101402.84;5058902;28;20024;-23
2022/06/11 08:49:09;;;;;;;3.25;2.50;;;;;;;25.80;49.49;101405.28;5071722;28;20412;-23
2022/06/11 08:51:40;;;;;;;2.92;2.00;;;;;;;25.83;49.17;101404.22;5078504;28;20072;-23
2022/06/11 08:54:10;;;;;;;2.15;2.05;;;;;;;25.96;50.17;101404.31;5079764;28;20092;-23
2022/06/11 08:56:48;;;;;;;4.30;2.70;;;;;;;26.21;48.20;101409.03;5075859;28;20039;-23
2022/06/11 08:59:45;;;;;;;2.35;2.15;;;;;;;26.34;47.98;101411.00;5057369;28;20044;-23
2022/06/11 09:02:29;;;;;;;2.55;2.35;;;;;;;26.24;48.75;101406.13;5075803;28;20035;-23
2022/06/11 09:05:15;;;;;;;2.10;2.00;;;;;;;26.25;48.63;101393.50;5084216;28;20541;-23
2022/06/11 09:07:51;;;;;;;3.67;2.75;;;;;;;26.43;47.95;101396.84;5071558;28;20221;-23
2022/06/11 09:10:36;;;;;;;2.28;2.13;;;;;;;26.47;48.33;101398.38;5060741;28;20032;-23
2022/06/11 09:13:19;;;;;;;1.95;1.83;;;;;;;26.70;47.93;101408.66;5076748;28;20391;-23
2022/06/11 09:16:12;;;;;;;3.10;2.05;;;;;;;26.76;47.53;101400.13;5058365;28;20419;-23
2022/06/11 09:19:02;;;;;;;4.18;2.10;;;;;;;26.98;45.74;101402.28;5058685;28;20059;-23
2022/06/11 09:21:55;;;;;;;2.28;2.00;;;;;;;27.02;45.45;101401.13;5064351;28;20042;-23
2022/06/11 09:24:34;;;;;;;2.47;2.10;;;;;;;27.06;47.17;101403.59;5061554;28;20020;-23
2022/06/11 09:27:05;;;;;;;2.05;1.85;;;;;;;27.02;46.65;101392.13;5077029;28;20031;-23
2022/06/11 09:29:37;;;;;;;3.35;2.40;;;;;;;27.14;47.14;101395.84;5078344;28;20035;-23
2022/06/11 09:32:12;;;;;;;3.70;2.53;;;;;;;27.25;45.26;101396.00;5070775;28;20042;-23
2022/06/11 09:34:55;;;;;;;2.95;2.00;;;;;;;27.33;45.55;101389.16;5071976;28;20043;-23
2022/06/11 09:37:26;;;;;;;3.38;2.00;;;;;;;27.38;44.13;101387.00;5036770;28;20084;-23
2022/06/11 09:40:25;;;;;;;3.20;2.42;;;;;;;27.35;44.99;101379.97;5081071;28;20036;-23
2022/06/11 09:43:27;;;;;;;3.45;2.00;;;;;;;27.53;43.45;101385.94;5077567;28;20491;-23
2022/06/11 09:46:14;;;;;;;5.00;1.90;;;;;;;27.54;45.05;101392.19;5049703;28;20048;-24
2022/06/11 09:49:08;;;;;;;2.90;2.17;;;;;;;27.78;44.59;101378.78;5072726;28;20059;-23
2022/06/11 09:51:50;;;;;;;4.32;2.67;;;;;;;27.51;42.73;101378.91;5075679;28;20032;-23
2022/06/11 09:54:18;;;;;;;3.13;2.22;;;;;;;27.61;43.71;101382.66;5059455;28;20056;-23
2022/06/11 09:57:09;;;;;;;4.50;2.25;;;;;;;27.88;42.77;101381.69;5077803;28;20658;-23
2022/06/11 09:59:43;;;;;;;2.08;1.92;;;;;;;28.07;40.69;101372.22;5061813;28;20027;-23
2022/06/11 10:02:27;;;;;;;2.97;1.55;;;;;;;28.14;40.77;101383.53;5080623;28;20029;-23
2022/06/11 10:04:54;;;;;;;2.63;1.95;;;;;;;28.21;39.87;101384.78;5082714;28;21212;-23
2022/06/11 10:07:24;;;;;;;3.70;1.88;;;;;;;27.97;39.97;101388.31;5056773;28;20024;-23
2022/06/11 10:10:20;;;;;;;4.68;2.42;;;;;;;28.17;39.82;101378.72;5062375;28;20016;-23
2022/06/11 10:12:49;;;;;;;4.13;2.20;;;;;;;28.32;39.26;101375.03;5063149;28;20020;-23
2022/06/11 10:15:27;;;;;;;2.03;1.75;;;;;;;28.43;38.67;101380.53;5061622;28;20036;-23
2022/06/11 10:18:14;;;;;;;2.40;1.70;;;;;;;28.40;38.37;101380.75;5078830;28;20036;-23
2022/06/11 10:20:43;;;;;;;1.88;1.70;;;;;;;28.39;38.21;101381.72;5079678;28;20036;-23
2022/06/11 10:23:16;;;;;;;1.50;1.40;;;;;;;28.35;38.65;101374.81;5061035;28;20035;-23
2022/06/11 10:26:02;;;;;;;3.05;1.70;;;;;;;28.38;39.23;101374.59;5061180;28;20032;-23
2022/06/11 10:29:00;;;;;;;1.65;1.55;;;;;;;28.48;40.00;101383.78;5057603;28;20043;-23
2022/06/11 10:31:31;;;;;;;2.70;1.63;;;;;;;28.53;39.35;101377.97;5058389;28;20085;-23
2022/06/11 10:34:03;;;;;;;1.58;1.45;;;;;;;28.56;39.39;101380.47;5060663;28;20020;-23
2022/06/11 10:36:35;;;;;;;1.50;1.40;;;;;;;28.56;38.70;101378.63;5057520;28;20024;-23
2022/06/11 10:39:04;;;;;;;2.05;1.85;;;;;;;28.53;38.64;101381.56;5061469;28;20111;-23
2022/06/11 10:41:39;;;;;;;1.85;1.38;;;;;;;28.47;38.18;101379.31;5080544;28;20055;-23
2022/06/11 10:44:29;;;;;;;1.60;1.50;;;;;;;28.43;38.34;101380.53;5079516;28;20028;-23
2022/06/11 10:46:54;;;;;;;;;;;;;;;28.36;39.31;101371.97;5082105;28;20042;-23
2022/06/11 10:49:22;;;;;;;1.43;1.30;;;;;;;28.33;38.90;101371.31;5054285;28;20291;-23
2022/06/11 10:51:55;;;;;;;1.95;1.60;;;;;;;28.33;38.96;101374.91;5078057;28;20032;-23
2022/06/11 10:54:23;;;;;;;2.10;1.63;;;;;;;28.21;39.76;101379.34;5080881;28;20051;-23
2022/06/11 10:56:52;;;;;;;1.70;1.60;;;;;;;28.14;39.61;101378.09;5078138;28;20488;-23
2022/06/11 10:59:25;;;;;;;7.53;2.20;;;;;;;28.11;41.13;101373.75;5076659;28;20032;-23
2022/06/11 11:01:57;;;;;;;1.50;1.40;;;;;;;28.06;41.04;101381.34;5060102;28;20092;-22
2022/06/11 11:04:22;;;;;;;1.60;1.50;;;;;;;28.04;41.71;101372.47;5058683;28;20107;-23
2022/06/11 11:07:06;;;;;;;1.73;1.50;;;;;;;27.99;42.38;101372.81;5083064;28;20118;-23
2022/06/11 11:09:31;;;;;;;1.83;1.73;;;;;;;27.95;41.57;101368.59;5079493;28;20037;-23
2022/06/11 11:12:00;;;;;;;2.05;1.58;;;;;;;27.91;41.51;101364.38;5060057;28;20039;-23
2022/06/11 11:14:30;;;;;;;1.90;1.80;;;;;;;27.78;42.69;101373.38;5075245;28;20028;-23
2022/06/11 11:16:59;;;;;;;1.83;1.60;;;;;;;27.74;42.63;101371.00;5062825;28;20036;-23
2022/06/11 11:19:32;;;;;;;2.90;1.80;;;;;;;27.66;43.57;101372.41;5064719;28;20043;-23
2022/06/11 11:21:58;;;;;;;1.63;1.52;;;;;;;27.67;43.16;101365.13;5059003;28;20059;-23
2022/06/11 11:24:49;;;;;;;1.70;1.60;;;;;;;27.66;43.70;101379.66;5061090;28;20503;-23
2022/06/11 11:27:17;;;;;;;2.38;1.70;;;;;;;27.76;42.96;101374.47;5058287;28;20123;-23
2022/06/11 11:29:52;;;;;;;2.08;1.77;;;;;;;27.73;43.13;101377.38;5064292;28;20035;-23
2022/06/11 11:32:33;;;;;;;2.22;1.77;;;;;;;27.70;41.83;101385.75;5063479;28;20544;-23
2022/06/11 11:35:14;;;;;;;1.83;1.70;;;;;;;27.56;41.96;101381.25;5080423;28;20073;-23
2022/06/11 11:37:39;;;;;;;2.75;1.98;;;;;;;27.50;42.55;101378.00;5074510;28;20110;-23
2022/06/11 11:40:25;;;;;;;1.83;1.73;;;;;;;27.39;43.50;101388.72;5076812;28;20103;-23
2022/06/11 11:42:55;;;;;;;3.88;1.98;;;;;;;27.34;42.93;101382.78;5072287;28;20131;-23
2022/06/11 11:45:23;;;;;;;1.85;1.65;;;;;;;27.24;43.01;101383.41;5077801;28;20027;-23